createdAt,value
2022-09-07T00:01:00.571Z,18.31
2022-09-07T00:03:27.433Z,18.29
2022-09-07T00:05:54.176Z,18.28
2022-09-07T00:08:23.260Z,18.28
2022-09-07T00:10:58.272Z,18.29
2022-09-07T00:13:26.782Z,18.22
2022-09-07T00:15:53.369Z,18.25
2022-09-07T00:18:20.013Z,18.15
2022-09-07T00:20:46.563Z,18.08
2022-09-07T00:23:13.276Z,18.01
2022-09-07T00:25:40.288Z,17.95
2022-09-07T00:28:08.585Z,17.93
2022-09-07T00:30:41.928Z,17.93
2022-09-07T00:33:09.126Z,17.88
2022-09-07T00:35:42.034Z,17.84
2022-09-07T00:38:09.300Z,17.82
2022-09-07T00:40:35.906Z,17.75
2022-09-07T00:43:02.483Z,17.71
2022-09-07T00:45:29.429Z,17.63
2022-09-07T00:48:07.482Z,17.60
2022-09-07T00:50:42.975Z,17.57
2022-09-07T00:53:15.835Z,17.56
2022-09-07T00:55:45.569Z,17.58
2022-09-07T00:58:13.419Z,17.40
2022-09-07T01:00:41.830Z,17.46
2022-09-07T01:03:10.900Z,17.42
2022-09-07T01:05:51.736Z,17.44
2022-09-07T01:08:18.505Z,17.38
2022-09-07T01:10:46.733Z,17.41
2022-09-07T01:13:15.049Z,17.44
2022-09-07T01:16:05.550Z,17.39
2022-09-07T01:18:53.342Z,17.46
2022-09-07T01:21:27.068Z,17.40
2022-09-07T01:24:11.520Z,17.42
2022-09-07T01:27:18.482Z,17.34
2022-09-07T01:30:03.480Z,17.27
2022-09-07T01:32:36.142Z,17.25
2022-09-07T01:35:12.016Z,17.26
2022-09-07T01:37:49.140Z,17.23
2022-09-07T01:40:22.535Z,17.05
2022-09-07T01:43:02.340Z,16.94
2022-09-07T01:45:34.807Z,16.82
2022-09-07T01:48:05.904Z,16.77
2022-09-07T01:50:45.680Z,16.87
2022-09-07T01:53:23.355Z,16.84
2022-09-07T01:56:01.799Z,16.86
2022-09-07T01:58:46.020Z,16.89
2022-09-07T02:01:18.861Z,16.86
2022-09-07T02:03:55.151Z,16.90
2022-09-07T02:06:36.460Z,16.89
2022-09-07T02:09:09.837Z,16.91
2022-09-07T02:11:40.640Z,16.90
2022-09-07T02:14:14.324Z,16.89
2022-09-07T02:16:49.651Z,16.84
2022-09-07T02:19:19.150Z,16.86
2022-09-07T02:21:53.271Z,16.83
2022-09-07T02:24:26.145Z,16.82
2022-09-07T02:26:54.400Z,16.85
2022-09-07T02:29:21.159Z,16.90
2022-09-07T02:31:48.124Z,16.81
2022-09-07T02:34:14.668Z,16.81
2022-09-07T02:36:45.780Z,16.76
2022-09-07T02:39:12.796Z,16.73
2022-09-07T02:41:41.969Z,16.75
2022-09-07T02:44:21.308Z,16.77
2022-09-07T02:47:06.081Z,16.76
2022-09-07T02:49:46.211Z,16.81
2022-09-07T02:52:24.668Z,16.79
2022-09-07T02:55:09.177Z,16.82
2022-09-07T02:57:53.344Z,16.86
2022-09-07T03:00:26.007Z,16.89
2022-09-07T03:03:12.605Z,16.92
2022-09-07T03:05:39.003Z,16.96
2022-09-07T03:08:18.143Z,16.94
2022-09-07T03:10:45.390Z,16.96
2022-09-07T03:13:27.010Z,17.00
2022-09-07T03:15:56.243Z,17.03
2022-09-07T03:18:24.643Z,17.01
2022-09-07T03:20:51.412Z,17.00
2022-09-07T03:23:18.062Z,16.96
2022-09-07T03:25:44.635Z,16.97
2022-09-07T03:28:11.479Z,16.98
2022-09-07T03:30:41.946Z,17.04
2022-09-07T03:33:08.452Z,17.00
2022-09-07T03:35:35.518Z,17.01
2022-09-07T03:38:02.077Z,17.00
2022-09-07T03:40:28.832Z,16.98
2022-09-07T03:42:55.319Z,17.01
2022-09-07T03:45:21.663Z,16.97
2022-09-07T03:47:49.123Z,16.90
2022-09-07T03:50:15.651Z,16.85
2022-09-07T03:52:42.229Z,16.82
2022-09-07T03:55:09.023Z,16.78
2022-09-07T03:57:36.084Z,16.79
2022-09-07T04:00:04.855Z,16.71
2022-09-07T04:02:39.076Z,16.71
2022-09-07T04:05:05.834Z,16.72
2022-09-07T04:07:32.309Z,16.70
2022-09-07T04:09:58.791Z,16.70
2022-09-07T04:12:26.016Z,16.73
2022-09-07T04:14:52.530Z,16.72
2022-09-07T04:17:18.913Z,16.74
2022-09-07T04:19:45.395Z,16.74
2022-09-07T04:22:11.746Z,16.73
2022-09-07T04:24:38.219Z,16.76
2022-09-07T04:27:04.568Z,16.78
2022-09-07T04:29:31.130Z,16.77
2022-09-07T04:31:57.483Z,16.79
2022-09-07T04:34:24.084Z,16.76
2022-09-07T04:36:50.547Z,16.75
2022-09-07T04:39:17.129Z,16.76
2022-09-07T04:41:43.736Z,16.69
2022-09-07T04:44:14.806Z,16.66
2022-09-07T04:46:43.181Z,16.67
2022-09-07T04:49:10.663Z,16.64
2022-09-07T04:51:38.583Z,16.64
2022-09-07T04:54:05.427Z,16.62
2022-09-07T04:56:32.708Z,16.61
2022-09-07T04:59:01.262Z,16.60
2022-09-07T05:01:32.193Z,16.66
2022-09-07T05:04:01.137Z,16.69
2022-09-07T05:06:27.643Z,16.69
2022-09-07T05:08:55.015Z,16.73
2022-09-07T05:11:28.412Z,16.81
2022-09-07T05:14:00.876Z,16.80
2022-09-07T05:16:28.414Z,16.78
2022-09-07T05:19:01.223Z,16.76
2022-09-07T05:21:29.936Z,16.77
2022-09-07T05:23:57.737Z,16.78
2022-09-07T05:26:27.131Z,16.78
2022-09-07T05:31:40.739Z,16.78
2022-09-07T05:36:56.417Z,16.81
2022-09-07T05:39:23.175Z,16.79
2022-09-07T05:41:49.788Z,16.83
2022-09-07T05:47:02.776Z,16.86
2022-09-07T05:49:30.348Z,16.86
2022-09-07T05:51:56.827Z,16.91
2022-09-07T05:54:23.183Z,16.92
2022-09-07T05:56:49.647Z,16.96
2022-09-07T05:59:15.995Z,17.01
2022-09-07T06:01:42.498Z,17.01
2022-09-07T06:04:09.007Z,17.04
2022-09-07T06:06:38.249Z,17.11
2022-09-07T06:09:04.739Z,17.14
2022-09-07T06:11:31.227Z,17.16
2022-09-07T06:13:57.697Z,17.23
2022-09-07T06:16:24.331Z,17.35
2022-09-07T06:18:50.995Z,17.40
2022-09-07T06:21:19.622Z,17.36
2022-09-07T06:23:47.727Z,17.44
2022-09-07T06:26:16.324Z,17.50
2022-09-07T06:28:51.378Z,17.65
2022-09-07T06:31:21.577Z,17.83
2022-09-07T06:33:48.852Z,17.99
2022-09-07T06:36:17.784Z,18.06
2022-09-07T06:38:45.260Z,18.67
2022-09-07T06:44:06.739Z,19.10
2022-09-07T06:49:19.852Z,19.21
2022-09-07T06:51:46.362Z,19.28
2022-09-07T06:56:59.309Z,19.40
2022-09-07T06:59:25.785Z,19.75
2022-09-07T07:01:52.257Z,19.95
2022-09-07T07:04:18.718Z,20.29
2022-09-07T07:06:45.178Z,20.39
2022-09-07T07:09:13.064Z,20.49
2022-09-07T07:11:39.632Z,20.61
2022-09-07T07:14:06.128Z,20.66
2022-09-07T07:16:32.850Z,21.35
2022-09-07T07:18:59.452Z,21.61
2022-09-07T07:21:27.175Z,22.27
2022-09-07T07:23:55.372Z,22.98
2022-09-07T07:26:26.689Z,22.92
2022-09-07T07:31:26.937Z,24.07
2022-09-07T07:33:53.858Z,24.91
2022-09-07T07:36:22.919Z,24.95
2022-09-07T07:44:17.408Z,25.03
2022-09-07T07:46:47.509Z,24.27
2022-09-07T07:49:13.983Z,23.80
2022-09-07T07:54:26.800Z,23.14
2022-09-07T07:56:53.206Z,23.14
2022-09-07T07:59:19.654Z,23.22
2022-09-07T08:01:46.181Z,23.83
2022-09-07T08:04:12.735Z,24.36
2022-09-07T08:06:42.527Z,25.06
2022-09-07T08:09:09.121Z,25.62
2022-09-07T08:11:35.542Z,25.99
2022-09-07T08:14:05.833Z,26.24
2022-09-07T08:16:32.995Z,26.29
2022-09-07T08:18:59.559Z,26.97
2022-09-07T08:21:25.979Z,26.54
2022-09-07T08:23:52.328Z,26.64
2022-09-07T08:26:18.714Z,26.53
2022-09-07T08:28:46.169Z,27.02
2022-09-07T08:31:15.754Z,26.77
2022-09-07T08:33:42.791Z,27.17
2022-09-07T08:36:19.794Z,27.84
2022-09-07T08:38:47.308Z,27.79
2022-09-07T08:41:41.436Z,28.07
2022-09-07T08:44:19.891Z,27.84
2022-09-07T08:47:00.456Z,27.81
2022-09-07T08:49:50.444Z,27.38
2022-09-07T08:52:25.100Z,28.38
2022-09-07T08:55:18.650Z,28.73
2022-09-07T08:57:52.184Z,28.72
2022-09-07T09:00:19.176Z,28.33
2022-09-07T09:02:46.397Z,28.11
2022-09-07T09:05:43.859Z,28.30
2022-09-07T09:08:36.726Z,28.25
2022-09-07T09:11:10.792Z,28.32
2022-09-07T09:14:05.113Z,27.86
2022-09-07T09:16:43.380Z,28.23
2022-09-07T09:19:37.472Z,29.07
2022-09-07T09:22:17.537Z,29.78
2022-09-07T09:24:49.764Z,29.32
2022-09-07T09:27:16.397Z,28.65
2022-09-07T09:29:43.090Z,28.18
2022-09-07T09:32:39.776Z,28.14
2022-09-07T09:35:25.312Z,28.51
2022-09-07T09:37:51.687Z,29.12
2022-09-07T09:40:23.219Z,28.96
2022-09-07T09:42:59.907Z,28.81
2022-09-07T09:46:12.294Z,28.55
2022-09-07T09:48:34.982Z,29.57
2022-09-07T09:53:55.935Z,29.03
2022-09-07T09:56:23.359Z,28.93
2022-09-07T09:59:05.759Z,29.31
2022-09-07T10:01:36.883Z,29.54
2022-09-07T10:04:25.343Z,28.87
2022-09-07T10:07:10.949Z,29.36
2022-09-07T10:09:40.364Z,29.06
2022-09-07T10:12:22.485Z,28.72
2022-09-07T10:14:48.901Z,29.22
2022-09-07T10:17:27.405Z,28.70
2022-09-07T10:19:59.135Z,29.38
2022-09-07T10:22:37.428Z,29.13
2022-09-07T10:25:25.120Z,29.17
2022-09-07T10:28:09.920Z,29.28
2022-09-07T10:30:45.225Z,29.17
2022-09-07T10:33:26.556Z,30.36
2022-09-07T10:36:37.165Z,29.88
2022-09-07T10:39:13.044Z,29.61
2022-09-07T10:42:08.640Z,29.84
2022-09-07T10:45:08.835Z,30.18
2022-09-07T10:48:00.123Z,30.40
2022-09-07T10:50:39.491Z,31.65
2022-09-07T10:53:42.275Z,32.34
2022-09-07T10:56:18.595Z,31.42
2022-09-07T10:59:02.193Z,31.05
2022-09-07T11:01:50.966Z,30.98
2022-09-07T11:04:36.240Z,30.52
2022-09-07T11:07:17.062Z,30.40
2022-09-07T11:09:48.347Z,29.73
2022-09-07T11:12:18.625Z,29.88
2022-09-07T11:15:10.767Z,28.99
2022-09-07T11:17:52.757Z,28.57
2022-09-07T11:20:34.010Z,28.21
2022-09-07T11:23:16.960Z,28.49
2022-09-07T11:26:01.919Z,28.52
2022-09-07T11:29:28.740Z,28.41
2022-09-07T11:31:49.319Z,28.19
2022-09-07T11:34:38.067Z,28.25
2022-09-07T11:37:19.532Z,28.38
2022-09-07T11:40:03.989Z,28.38
2022-09-07T11:42:55.708Z,28.21
2022-09-07T11:45:45.908Z,27.70
2022-09-07T11:48:30.285Z,27.43
2022-09-07T11:51:05.842Z,27.90
2022-09-07T11:53:42.425Z,28.38
2022-09-07T11:56:15.149Z,28.60
2022-09-07T11:59:09.492Z,28.93
2022-09-07T12:01:44.910Z,29.25
2022-09-07T12:04:35.184Z,29.76
2022-09-07T12:07:10.977Z,28.96
2022-09-07T12:09:59.475Z,28.74
2022-09-07T12:12:38.059Z,28.34
2022-09-07T12:15:36.248Z,28.62
2022-09-07T12:18:05.435Z,28.44
2022-09-07T12:20:41.085Z,28.44
2022-09-07T12:23:16.731Z,28.66
2022-09-07T12:25:44.957Z,28.41
2022-09-07T12:28:21.720Z,28.63
2022-09-07T12:30:55.640Z,28.90
2022-09-07T12:33:26.552Z,28.79
2022-09-07T12:35:54.956Z,29.30
2022-09-07T12:38:30.735Z,28.84
2022-09-07T12:41:02.847Z,28.68
2022-09-07T12:43:36.103Z,28.61
2022-09-07T12:46:03.338Z,28.36
2022-09-07T12:49:00.106Z,28.71
2022-09-07T12:54:43.847Z,28.92
2022-09-07T12:57:34.762Z,28.84
2022-09-07T13:00:42.300Z,28.58
2022-09-07T13:06:16.081Z,28.61
2022-09-07T13:08:47.739Z,28.97
2022-09-07T13:11:30.011Z,28.99
2022-09-07T13:14:05.159Z,29.00
2022-09-07T13:19:59.196Z,28.88
2022-09-07T13:22:31.291Z,29.50
2022-09-07T13:24:59.793Z,29.32
2022-09-07T13:27:52.418Z,29.25
2022-09-07T13:30:31.013Z,28.81
2022-09-07T13:33:25.124Z,28.44
2022-09-07T13:35:54.178Z,28.60
2022-09-07T13:38:21.585Z,28.54
2022-09-07T13:40:52.034Z,28.75
2022-09-07T13:43:21.248Z,29.00
2022-09-07T13:45:53.887Z,28.81
2022-09-07T13:48:41.984Z,28.86
2022-09-07T13:51:20.487Z,28.60
2022-09-07T13:53:56.085Z,28.30
2022-09-07T13:56:28.349Z,27.53
2022-09-07T13:58:55.098Z,27.64
2022-09-07T14:01:26.500Z,27.68
2022-09-07T14:04:06.528Z,27.64
2022-09-07T14:06:34.165Z,27.55
2022-09-07T14:09:14.729Z,27.59
2022-09-07T14:11:46.054Z,27.35
2022-09-07T14:14:27.212Z,27.23
2022-09-07T14:17:07.554Z,27.38
2022-09-07T14:19:41.783Z,27.46
2022-09-07T14:22:11.192Z,27.59
2022-09-07T14:24:40.815Z,27.34
2022-09-07T14:27:20.945Z,27.63
2022-09-07T14:29:48.132Z,27.57
2022-09-07T14:32:22.331Z,27.52
2022-09-07T14:34:50.559Z,27.94
2022-09-07T14:37:20.943Z,28.10
2022-09-07T14:39:49.985Z,27.97
2022-09-07T14:42:22.150Z,27.67
2022-09-07T14:44:50.196Z,27.49
2022-09-07T14:47:23.491Z,27.64
2022-09-07T14:49:52.609Z,27.56
2022-09-07T14:53:33.154Z,27.74
2022-09-07T14:55:39.823Z,27.74
2022-09-07T14:58:15.568Z,27.50
2022-09-07T15:00:47.121Z,27.45
2022-09-07T15:03:50.954Z,27.53
2022-09-07T15:09:36.955Z,28.64
2022-09-07T15:12:18.458Z,28.99
2022-09-07T15:14:45.544Z,29.57
2022-09-07T15:20:29.643Z,29.98
2022-09-07T15:22:56.137Z,29.92
2022-09-07T15:25:22.911Z,29.59
2022-09-07T15:27:50.340Z,29.12
2022-09-07T15:30:17.615Z,28.81
2022-09-07T15:32:44.184Z,28.41
2022-09-07T15:35:10.914Z,28.10
2022-09-07T15:40:26.170Z,27.52
2022-09-07T15:43:00.640Z,26.94
2022-09-07T15:45:27.491Z,26.32
2022-09-07T15:47:54.152Z,26.20
2022-09-07T15:50:23.138Z,25.89
2022-09-07T15:52:49.744Z,25.82
2022-09-07T15:55:17.524Z,25.53
2022-09-07T15:58:05.245Z,25.37
2022-09-07T16:00:30.861Z,24.79
2022-09-07T16:03:06.097Z,24.13
2022-09-07T16:05:33.845Z,24.07
2022-09-07T16:10:55.604Z,23.51
2022-09-07T16:13:24.010Z,23.33
2022-09-07T16:15:52.709Z,22.59
2022-09-07T16:18:19.293Z,22.40
2022-09-07T16:20:47.362Z,22.35
2022-09-07T16:23:16.442Z,22.66
2022-09-07T16:25:56.283Z,22.28
2022-09-07T16:28:22.970Z,22.05
2022-09-07T16:30:50.188Z,22.10
2022-09-07T16:33:16.634Z,22.08
2022-09-07T16:35:43.089Z,22.33
2022-09-07T16:40:56.181Z,21.86
2022-09-07T16:43:22.878Z,21.93
2022-09-07T16:46:05.153Z,22.14
2022-09-07T16:48:33.462Z,22.12
2022-09-07T16:51:02.657Z,21.73
2022-09-07T16:53:31.065Z,21.35
2022-09-07T16:56:20.039Z,21.54
2022-09-07T16:58:49.246Z,21.66
2022-09-07T17:01:19.838Z,21.68
2022-09-07T17:03:49.224Z,21.54
2022-09-07T17:06:16.998Z,21.38
2022-09-07T17:08:43.959Z,21.39
2022-09-07T17:11:13.324Z,21.44
2022-09-07T17:13:41.308Z,21.11
2022-09-07T17:16:13.081Z,21.08
2022-09-07T17:21:35.905Z,20.84
2022-09-07T17:24:04.764Z,20.86
2022-09-07T17:26:32.181Z,20.77
2022-09-07T17:29:00.976Z,20.84
2022-09-07T17:34:16.900Z,20.66
2022-09-07T17:36:43.327Z,20.36
2022-09-07T17:39:18.627Z,20.19
2022-09-07T17:41:52.461Z,20.11
2022-09-07T17:44:19.316Z,19.99
2022-09-07T17:46:45.719Z,19.99
2022-09-07T17:49:14.375Z,20.00
2022-09-07T17:51:40.882Z,19.68
2022-09-07T17:54:11.649Z,19.53
2022-09-07T17:56:39.050Z,19.51
2022-09-07T18:01:53.870Z,19.57
2022-09-07T18:04:20.964Z,19.57
2022-09-07T18:06:47.654Z,19.57
2022-09-07T18:09:14.402Z,19.61
2022-09-07T18:11:47.095Z,19.47
2022-09-07T18:14:15.225Z,19.08
2022-09-07T18:16:44.100Z,18.98
2022-09-07T18:19:12.241Z,19.12
2022-09-07T18:21:40.810Z,19.16
2022-09-07T18:24:13.812Z,19.29
2022-09-07T18:26:41.020Z,19.04
2022-09-07T18:29:25.874Z,19.12
2022-09-07T18:31:55.356Z,19.21
2022-09-07T18:34:22.291Z,19.30
2022-09-07T18:36:49.048Z,19.14
2022-09-07T18:39:15.639Z,19.02
2022-09-07T18:41:42.356Z,18.89
2022-09-07T18:46:55.913Z,18.76
2022-09-07T18:49:22.498Z,18.88
2022-09-07T18:54:35.681Z,18.91
2022-09-07T18:57:02.211Z,18.76
2022-09-07T18:59:29.836Z,18.70
2022-09-07T19:02:01.321Z,18.81
2022-09-07T19:07:17.818Z,18.87
2022-09-07T19:09:44.321Z,18.77
2022-09-07T19:12:10.866Z,18.69
2022-09-07T19:14:38.100Z,18.61
2022-09-07T19:17:04.852Z,18.68
2022-09-07T19:19:32.817Z,18.59
2022-09-07T19:22:01.552Z,18.59
2022-09-07T19:24:28.624Z,18.65
2022-09-07T19:27:00.075Z,18.69
2022-09-07T19:29:27.200Z,18.64
2022-09-07T19:32:11.635Z,18.55
2022-09-07T19:34:43.555Z,18.58
2022-09-07T19:37:12.623Z,18.60
2022-09-07T19:39:39.842Z,18.49
2022-09-07T19:42:07.237Z,18.47
2022-09-07T19:44:33.991Z,18.40
2022-09-07T19:47:00.842Z,18.46
2022-09-07T19:49:28.003Z,18.47
2022-09-07T19:51:54.833Z,18.35
2022-09-07T19:54:21.567Z,18.40
2022-09-07T19:56:48.345Z,18.46
2022-09-07T19:59:15.135Z,18.33
2022-09-07T20:01:45.984Z,18.22
2022-09-07T20:04:20.303Z,18.29
2022-09-07T20:06:49.829Z,18.36
2022-09-07T20:09:18.212Z,18.26
2022-09-07T20:11:46.935Z,18.30
2022-09-07T20:14:15.039Z,18.30
2022-09-07T20:16:41.976Z,18.28
2022-09-07T20:19:11.599Z,18.29
2022-09-07T20:21:38.340Z,18.28
2022-09-07T20:24:05.936Z,18.14
2022-09-07T20:26:32.692Z,18.13
2022-09-07T20:29:23.454Z,18.13
2022-09-07T20:31:46.235Z,18.05
2022-09-07T20:34:12.938Z,18.12
2022-09-07T20:36:40.071Z,18.14
2022-09-07T20:39:06.575Z,18.18
2022-09-07T20:41:34.226Z,17.88
2022-09-07T20:44:02.341Z,17.99
2022-09-07T20:46:30.283Z,18.08
2022-09-07T20:48:57.196Z,17.98
2022-09-07T20:51:23.742Z,18.01
2022-09-07T20:53:50.726Z,18.06
2022-09-07T20:56:18.450Z,18.03
2022-09-07T20:58:46.416Z,17.78
2022-09-07T21:01:15.275Z,18.10
2022-09-07T21:03:49.214Z,17.99
2022-09-07T21:06:17.356Z,18.00
2022-09-07T21:08:45.280Z,18.11
2022-09-07T21:11:19.874Z,17.93
2022-09-07T21:13:47.092Z,17.81
2022-09-07T21:16:16.895Z,17.86
2022-09-07T21:18:44.099Z,17.86
2022-09-07T21:21:20.163Z,17.83
2022-09-07T21:23:47.626Z,17.82
2022-09-07T21:26:14.004Z,17.82
2022-09-07T21:28:40.331Z,17.80
2022-09-07T21:31:08.560Z,17.70
2022-09-07T21:33:36.413Z,17.67
2022-09-07T21:36:07.672Z,17.64
2022-09-07T21:38:36.075Z,17.64
2022-09-07T21:41:13.883Z,17.60
2022-09-07T21:43:40.921Z,17.58
2022-09-07T21:46:12.152Z,17.53
2022-09-07T21:48:39.304Z,17.50
2022-09-07T21:51:06.271Z,17.49
2022-09-07T21:53:33.369Z,17.55
2022-09-07T21:56:02.867Z,17.52
2022-09-07T21:58:29.692Z,17.58
2022-09-07T22:00:56.971Z,17.48
2022-09-07T22:03:25.242Z,17.42
2022-09-07T22:05:52.267Z,17.43
2022-09-07T22:08:19.225Z,17.34
2022-09-07T22:10:46.387Z,17.28
2022-09-07T22:13:12.992Z,17.31
2022-09-07T22:15:40.807Z,17.29
2022-09-07T22:18:10.748Z,17.31
2022-09-07T22:20:37.159Z,17.32
2022-09-07T22:23:05.235Z,17.42
2022-09-07T22:25:33.117Z,17.31
2022-09-07T22:27:59.608Z,17.16
2022-09-07T22:30:25.935Z,17.18
2022-09-07T22:32:52.314Z,17.28
2022-09-07T22:35:19.411Z,17.34
2022-09-07T22:37:46.251Z,17.33
2022-09-07T22:40:14.680Z,17.31
2022-09-07T22:42:41.811Z,17.26
2022-09-07T22:45:08.958Z,17.25
2022-09-07T22:47:35.312Z,17.32
2022-09-07T22:50:01.685Z,17.32
2022-09-07T22:52:27.951Z,17.38
2022-09-07T22:54:54.352Z,17.33
2022-09-07T22:57:20.633Z,17.36
2022-09-07T22:59:47.009Z,17.28
2022-09-07T23:02:13.359Z,17.11
2022-09-07T23:04:39.774Z,17.09
2022-09-07T23:07:07.590Z,17.22
2022-09-07T23:09:33.960Z,17.08
2022-09-07T23:12:00.430Z,17.12
2022-09-07T23:14:26.744Z,17.03
2022-09-07T23:16:53.235Z,17.05
2022-09-07T23:19:20.316Z,17.16
2022-09-07T23:21:46.937Z,17.21
2022-09-07T23:24:15.984Z,17.38
2022-09-07T23:26:43.160Z,17.46
2022-09-07T23:29:11.950Z,17.35
2022-09-07T23:31:38.725Z,17.10
2022-09-07T23:34:05.540Z,17.07
2022-09-07T23:36:32.708Z,17.10
2022-09-07T23:38:59.912Z,17.14
2022-09-07T23:41:27.158Z,17.12
2022-09-07T23:43:54.793Z,17.05
2022-09-07T23:46:21.882Z,17.12
2022-09-07T23:48:49.076Z,17.07
2022-09-07T23:51:19.936Z,17.08
2022-09-07T23:53:49.552Z,17.13
2022-09-07T23:56:15.906Z,17.02
2022-09-07T23:58:42.676Z,16.96
